Time;durP1;ratioP1;P1;durP2;ratioP2;P2;SDS_P1;SDS_P2;PMS_P1;PMS_P2;Temp;Humidity;BMP_temperature;BMP_pressure;BME280_temperature;BME280_humidity;BME280_pressure;Samples;Min_cycle;Max_cycle;Signal;HPM_P1;HPM_P2
2021/04/28 00:00:29;;;;;;;13.10;10.70;;;;;;;;;;5079969;28;21088;-92
2021/04/28 00:02:55;;;;;;;13.53;11.43;;;;;;;;;;5082335;28;20449;-93
2021/04/28 00:05:22;;;;;;;13.90;11.17;;;;;;;;;;5079276;28;20459;-93
2021/04/28 00:07:48;;;;;;;20.47;12.60;;;;;;;;;;5080714;28;20463;-93
2021/04/28 00:10:16;;;;;;;15.00;11.80;;;;;;;;;;5084699;28;20429;-93
2021/04/28 00:12:44;;;;;;;13.43;11.70;;;;;;;;;;5089262;28;20447;-95
2021/04/28 00:15:12;;;;;;;16.93;12.50;;;;;;;;;;5081477;28;20477;-95
2021/04/28 00:17:38;;;;;;;22.13;12.40;;;;;;;;;;5078792;28;20503;-95
2021/04/28 00:20:05;;;;;;;15.53;12.90;;;;;;;;;;5080806;28;20461;-94
2021/04/28 00:22:31;;;;;;;17.50;12.63;;;;;;;;;;5078981;28;20458;-93
2021/04/28 00:24:57;;;;;;;14.30;12.47;;;;;;;;;;5082209;28;20466;-93
2021/04/28 00:27:23;;;;;;;16.27;13.13;;;;;;;;;;5078698;28;20460;-94
2021/04/28 00:29:50;;;;;;;29.83;16.93;;;;;;;;;;5081620;28;20873;-94
2021/04/28 00:32:16;;;;;;;26.17;21.30;;;;;;;;;;5078045;28;20486;-95
2021/04/28 00:34:42;;;;;;;36.80;30.30;;;;;;;;;;5080381;28;20445;-94
2021/04/28 00:37:08;;;;;;;36.97;31.23;;;;;;;;;;5078287;28;20491;-94
2021/04/28 00:39:34;;;;;;;47.47;40.00;;;;;;;;;;5079537;28;20527;-95
2021/04/28 00:42:00;;;;;;;56.10;47.83;;;;;;;;;;5076077;28;20455;-94
2021/04/28 00:44:26;;;;;;;89.10;71.00;;;;;;;;;;5080225;28;20489;-94
2021/04/28 00:46:53;;;;;;;74.37;61.03;;;;;;;;;;5087743;28;20448;-94
2021/04/28 00:49:19;;;;;;;89.33;76.13;;;;;;;;;;5083638;28;20452;-95
2021/04/28 00:51:45;;;;;;;104.13;87.80;;;;;;;;;;5076770;28;20446;-94
2021/04/28 00:54:11;;;;;;;108.57;89.33;;;;;;;;;;5079032;28;20459;-93
2021/04/28 00:56:37;;;;;;;110.70;89.90;;;;;;;;;;5079668;28;21069;-93
2021/04/28 00:59:03;;;;;;;86.97;71.77;;;;;;;;;;5078143;28;20449;-91
2021/04/28 01:01:29;;;;;;;45.67;39.13;;;;;;;;;;5081200;28;20461;-94
2021/04/28 01:03:56;;;;;;;77.27;63.43;;;;;;;;;;5078584;28;20460;-95
2021/04/28 01:06:22;;;;;;;62.70;50.90;;;;;;;;;;5080498;28;20459;-93
2021/04/28 01:08:48;;;;;;;41.50;36.10;;;;;;;;;;5078062;28;20501;-93
2021/04/28 01:11:14;;;;;;;46.37;39.50;;;;;;;;;;5081349;28;20451;-93
2021/04/28 01:13:41;;;;;;;30.00;24.47;;;;;;;;;;5079533;28;20456;-94
2021/04/28 01:16:07;;;;;;;29.50;23.60;;;;;;;;;;5081396;28;20493;-95
2021/04/28 01:18:33;;;;;;;27.97;24.83;;;;;;;;;;5078308;28;20462;-94
2021/04/28 01:21:00;;;;;;;32.07;27.90;;;;;;;;;;5085852;28;20438;-94
2021/04/28 01:23:27;;;;;;;32.90;28.90;;;;;;;;;;5088131;28;20496;-94
2021/04/28 01:25:53;;;;;;;40.33;30.83;;;;;;;;;;5080854;28;20449;-95
2021/04/28 01:28:20;;;;;;;38.27;31.40;;;;;;;;;;5077952;28;20450;-94
2021/04/28 01:30:48;;;;;;;36.40;28.70;;;;;;;;;;5081389;28;20470;-94
2021/04/28 01:33:16;;;;;;;43.70;36.60;;;;;;;;;;5080921;28;20457;-92
2021/04/28 01:35:42;;;;;;;43.00;34.70;;;;;;;;;;5080405;28;20485;-95
2021/04/28 01:38:08;;;;;;;37.43;30.00;;;;;;;;;;5082290;28;20469;-95
2021/04/28 01:40:36;;;;;;;40.90;30.23;;;;;;;;;;5079643;28;20457;-95
2021/04/28 01:43:02;;;;;;;31.03;25.20;;;;;;;;;;5082462;28;20480;-96
2021/04/28 01:45:33;;;;;;;35.27;28.83;;;;;;;;;;5081377;28;20454;-95
2021/04/28 01:47:59;;;;;;;38.53;29.53;;;;;;;;;;5089418;28;20917;-94
2021/04/28 01:50:25;;;;;;;43.73;31.70;;;;;;;;;;5080965;28;20464;-93
2021/04/28 01:52:51;;;;;;;46.97;38.07;;;;;;;;;;5080990;28;20831;-93
2021/04/28 01:55:18;;;;;;;49.43;39.87;;;;;;;;;;5078479;28;20494;-94
2021/04/28 01:57:45;;;;;;;39.23;27.93;;;;;;;;;;5088809;28;20442;-95
2021/04/28 02:00:13;;;;;;;35.40;27.37;;;;;;;;;;5085412;28;20451;-93
2021/04/28 02:02:39;;;;;;;39.10;30.97;;;;;;;;;;5080056;28;20449;-94
2021/04/28 02:05:06;;;;;;;38.73;32.80;;;;;;;;;;5077201;28;20949;-94
2021/04/28 02:07:32;;;;;;;37.43;31.00;;;;;;;;;;5084464;28;20515;-94
2021/04/28 02:09:58;;;;;;;42.10;34.20;;;;;;;;;;5082060;28;20461;-94
2021/04/28 02:12:24;;;;;;;38.87;32.80;;;;;;;;;;5084781;28;20444;-94
2021/04/28 02:14:53;;;;;;;39.13;31.50;;;;;;;;;;5084477;28;20449;-94
2021/04/28 02:17:19;;;;;;;37.10;31.60;;;;;;;;;;5084098;28;20449;-94
2021/04/28 02:19:45;;;;;;;39.13;30.30;;;;;;;;;;5084781;28;20449;-94
2021/04/28 02:22:12;;;;;;;44.03;30.13;;;;;;;;;;5080617;28;20523;-95
2021/04/28 02:24:38;;;;;;;44.90;28.57;;;;;;;;;;5082720;28;20855;-94
2021/04/28 02:27:04;;;;;;;34.80;25.97;;;;;;;;;;5082101;28;20460;-94
2021/04/28 02:29:31;;;;;;;24.03;18.80;;;;;;;;;;5083866;28;20453;-93
2021/04/28 02:31:58;;;;;;;20.17;16.47;;;;;;;;;;5080093;28;20453;-94
2021/04/28 02:34:24;;;;;;;20.03;17.93;;;;;;;;;;5091134;28;20454;-95
2021/04/28 02:36:52;;;;;;;22.67;17.60;;;;;;;;;;5083590;28;20495;-94
2021/04/28 02:39:21;;;;;;;16.43;14.10;;;;;;;;;;5082839;28;20498;-93
2021/04/28 02:41:48;;;;;;;18.83;15.40;;;;;;;;;;5079948;28;20461;-93
2021/04/28 02:44:16;;;;;;;17.97;14.63;;;;;;;;;;5081567;28;20453;-94
2021/04/28 02:46:42;;;;;;;20.87;14.27;;;;;;;;;;5081405;28;20515;-95
2021/04/28 02:49:10;;;;;;;16.53;14.83;;;;;;;;;;5083804;28;20460;-94
2021/04/28 02:51:38;;;;;;;17.17;13.37;;;;;;;;;;5082895;28;20449;-94
2021/04/28 02:54:05;;;;;;;22.30;15.17;;;;;;;;;;5088937;28;20468;-92
2021/04/28 02:56:31;;;;;;;19.50;16.10;;;;;;;;;;5086698;28;20489;-93
2021/04/28 02:58:57;;;;;;;16.03;13.10;;;;;;;;;;5083412;28;20449;-94
2021/04/28 03:01:24;;;;;;;12.40;11.10;;;;;;;;;;5087318;28;20441;-94
2021/04/28 03:03:50;;;;;;;15.13;11.97;;;;;;;;;;5084233;28;20461;-95
2021/04/28 03:06:17;;;;;;;16.60;12.57;;;;;;;;;;5082974;28;20483;-93
2021/04/28 03:08:44;;;;;;;13.77;12.20;;;;;;;;;;5084890;28;20465;-92
2021/04/28 03:11:10;;;;;;;13.73;12.23;;;;;;;;;;5094326;28;20429;-94
2021/04/28 03:13:36;;;;;;;16.03;12.13;;;;;;;;;;5081024;28;20441;-96
2021/04/28 03:16:02;;;;;;;14.27;12.53;;;;;;;;;;5082371;28;20497;-94
2021/04/28 03:18:28;;;;;;;15.90;12.80;;;;;;;;;;5068964;28;20453;-94
2021/04/28 03:20:54;;;;;;;18.30;14.67;;;;;;;;;;5080692;28;20453;-94
2021/04/28 03:23:21;;;;;;;15.87;11.70;;;;;;;;;;5077850;28;20481;-93
2021/04/28 03:25:47;;;;;;;13.63;12.03;;;;;;;;;;5082153;28;20480;-93
2021/04/28 03:28:13;;;;;;;16.90;14.07;;;;;;;;;;5080474;28;20449;-94
2021/04/28 03:30:40;;;;;;;16.77;13.70;;;;;;;;;;5082823;28;20852;-95
2021/04/28 03:33:06;;;;;;;17.27;13.67;;;;;;;;;;5080487;28;20452;-94
2021/04/28 03:35:31;;;;;;;16.87;13.20;;;;;;;;;;5082886;28;21365;-93
2021/04/28 03:37:57;;;;;;;19.33;14.67;;;;;;;;;;5083326;28;20483;-94
2021/04/28 03:40:24;;;;;;;20.30;15.70;;;;;;;;;;5080058;28;20459;-93
2021/04/28 03:42:50;;;;;;;20.90;16.43;;;;;;;;;;5082779;28;20450;-94
2021/04/28 03:45:16;;;;;;;18.20;15.00;;;;;;;;;;5085262;28;20480;-93
2021/04/28 03:47:42;;;;;;;20.43;14.77;;;;;;;;;;5089942;28;20471;-93
2021/04/28 03:50:10;;;;;;;16.40;13.03;;;;;;;;;;5079729;28;20449;-93
2021/04/28 03:52:36;;;;;;;15.17;12.77;;;;;;;;;;5079684;28;20469;-92
2021/04/28 03:55:03;;;;;;;16.73;14.20;;;;;;;;;;5078110;28;20476;-92
2021/04/28 03:57:29;;;;;;;18.40;14.57;;;;;;;;;;5080785;28;20464;-93
2021/04/28 03:59:55;;;;;;;19.00;15.50;;;;;;;;;;5078655;28;20484;-95
2021/04/28 04:02:21;;;;;;;16.13;13.33;;;;;;;;;;5081595;28;20512;-94
2021/04/28 04:04:47;;;;;;;19.40;14.87;;;;;;;;;;5080376;28;20453;-95
2021/04/28 04:07:13;;;;;;;16.40;14.33;;;;;;;;;;5093030;28;20580;-94
2021/04/28 04:09:39;;;;;;;16.17;13.50;;;;;;;;;;5081189;28;20461;-94
2021/04/28 04:12:05;;;;;;;19.53;15.90;;;;;;;;;;5082891;28;20528;-93
2021/04/28 04:14:32;;;;;;;18.60;15.40;;;;;;;;;;5080908;28;21021;-92
2021/04/28 04:16:58;;;;;;;19.63;15.70;;;;;;;;;;5079682;28;20489;-92
2021/04/28 04:19:24;;;;;;;20.43;15.00;;;;;;;;;;5080255;28;20829;-93
2021/04/28 04:21:50;;;;;;;21.70;17.40;;;;;;;;;;5086189;28;20456;-93
2021/04/28 04:24:16;;;;;;;21.30;17.00;;;;;;;;;;5090831;28;20511;-93
2021/04/28 04:26:42;;;;;;;21.47;17.87;;;;;;;;;;5080226;28;20445;-93
2021/04/28 04:29:08;;;;;;;22.63;17.30;;;;;;;;;;5082043;28;20475;-93
2021/04/28 04:31:35;;;;;;;24.33;16.90;;;;;;;;;;5077982;28;20453;-93
2021/04/28 04:34:01;;;;;;;20.10;17.50;;;;;;;;;;5079832;28;20442;-94
2021/04/28 04:36:27;;;;;;;18.63;15.43;;;;;;;;;;5076794;28;21553;-94
2021/04/28 04:38:53;;;;;;;21.77;15.80;;;;;;;;;;5079587;28;20449;-94
2021/04/28 04:41:19;;;;;;;21.00;15.87;;;;;;;;;;5077674;28;20484;-95
2021/04/28 04:43:45;;;;;;;21.67;15.30;;;;;;;;;;5080636;28;20445;-95
2021/04/28 04:46:11;;;;;;;26.20;21.10;;;;;;;;;;5079147;28;20456;-95
2021/04/28 04:48:38;;;;;;;26.23;19.50;;;;;;;;;;5080237;28;20461;-96
2021/04/28 04:51:07;;;;;;;22.17;15.00;;;;;;;;;;5081931;28;20492;-96
2021/04/28 04:53:33;;;;;;;17.10;14.43;;;;;;;;;;5081402;28;20483;-96
2021/04/28 04:55:59;;;;;;;17.47;14.10;;;;;;;;;;5082570;28;20518;-95
2021/04/28 04:58:27;;;;;;;19.17;12.60;;;;;;;;;;5083825;28;20456;-96
2021/04/28 05:00:53;;;;;;;15.20;12.40;;;;;;;;;;5087572;28;20441;-95
2021/04/28 05:03:19;;;;;;;15.70;11.90;;;;;;;;;;5082326;28;20479;-95
2021/04/28 05:05:45;;;;;;;15.63;13.90;;;;;;;;;;5081857;28;20446;-96
2021/04/28 05:08:11;;;;;;;12.57;11.17;;;;;;;;;;5079045;28;20459;-95
2021/04/28 05:10:38;;;;;;;18.13;12.63;;;;;;;;;;5080737;28;20443;-94
2021/04/28 05:13:04;;;;;;;14.57;11.67;;;;;;;;;;5080076;28;20454;-95
2021/04/28 05:15:30;;;;;;;17.27;12.20;;;;;;;;;;5082202;28;20455;-93
2021/04/28 05:17:57;;;;;;;17.43;11.23;;;;;;;;;;5083262;28;20450;-94
2021/04/28 05:20:24;;;;;;;15.53;11.73;;;;;;;;;;5080615;28;20447;-94
2021/04/28 05:22:51;;;;;;;15.10;12.03;;;;;;;;;;5076063;28;20483;-96
2021/04/28 05:25:17;;;;;;;14.30;10.77;;;;;;;;;;5080499;28;20450;-96
2021/04/28 05:27:43;;;;;;;12.73;9.67;;;;;;;;;;5079378;28;20457;-96
2021/04/28 05:30:09;;;;;;;12.30;10.03;;;;;;;;;;5085527;28;20452;-95
2021/04/28 05:32:35;;;;;;;11.23;9.47;;;;;;;;;;5081320;28;20482;-95
2021/04/28 05:35:01;;;;;;;12.20;10.20;;;;;;;;;;5086568;28;20444;-93
2021/04/28 05:37:28;;;;;;;10.83;9.40;;;;;;;;;;5083713;28;20477;-93
2021/04/28 05:39:55;;;;;;;11.63;9.67;;;;;;;;;;5082733;28;20457;-93
2021/04/28 05:42:21;;;;;;;15.23;9.77;;;;;;;;;;5086729;28;20453;-95
2021/04/28 05:44:47;;;;;;;11.13;10.03;;;;;;;;;;5087503;28;20464;-96
2021/04/28 05:47:14;;;;;;;11.07;9.20;;;;;;;;;;5071218;28;20559;-93
2021/04/28 05:49:40;;;;;;;10.77;8.90;;;;;;;;;;5084643;28;20934;-95
2021/04/28 05:52:06;;;;;;;9.43;8.30;;;;;;;;;;5086001;28;20449;-94
2021/04/28 05:54:32;;;;;;;13.00;8.33;;;;;;;;;;5081632;28;20526;-94
2021/04/28 05:56:59;;;;;;;9.30;8.40;;;;;;;;;;5084651;28;20491;-93
2021/04/28 05:59:25;;;;;;;11.33;9.23;;;;;;;;;;5082887;28;20457;-93
2021/04/28 06:01:51;;;;;;;11.63;8.67;;;;;;;;;;5087344;28;20438;-95
2021/04/28 06:04:17;;;;;;;11.60;9.60;;;;;;;;;;5083636;28;20457;-93
2021/04/28 06:06:43;;;;;;;11.23;9.10;;;;;;;;;;5086243;28;20818;-95
2021/04/28 06:09:09;;;;;;;11.63;9.33;;;;;;;;;;5084359;28;20460;-93
2021/04/28 06:11:36;;;;;;;10.33;9.23;;;;;;;;;;5089138;28;20787;-96
2021/04/28 06:14:03;;;;;;;14.83;12.17;;;;;;;;;;5089055;28;20421;-96
2021/04/28 06:16:30;;;;;;;15.47;12.50;;;;;;;;;;5088522;28;20847;-96
2021/04/28 06:18:56;;;;;;;13.83;11.83;;;;;;;;;;5089855;28;20449;-96
2021/04/28 06:21:22;;;;;;;14.83;13.00;;;;;;;;;;5087895;28;20487;-96
2021/04/28 06:23:48;;;;;;;18.70;13.27;;;;;;;;;;5093115;28;20461;-94
2021/04/28 06:26:14;;;;;;;15.13;12.80;;;;;;;;;;5091567;28;20495;-96
2021/04/28 06:28:43;;;;;;;14.40;12.90;;;;;;;;;;5094222;28;20483;-96
2021/04/28 06:36:20;;;;;;;13.20;11.90;;;;;;;;;;5714391;23;20514;-96
2021/04/28 06:38:47;;;;;;;21.50;11.77;;;;;;;;;;5038240;28;20447;-96
2021/04/28 06:41:13;;;;;;;14.70;11.13;;;;;;;;;;5023513;28;20440;-95
2021/04/28 06:43:39;;;;;;;16.00;11.37;;;;;;;;;;5034135;28;20439;-96
2021/04/28 06:46:11;;;;;;;13.47;11.20;;;;;;;;;;5053878;23;20476;-96
2021/04/28 06:48:39;;;;;;;11.90;10.70;;;;;;;;;;5096545;28;20441;-96
2021/04/28 06:54:00;;;;;;;13.63;10.93;;;;;;;;;;5086751;28;20437;-96
2021/04/28 06:59:00;;;;;;;16.30;10.47;;;;;;;;;;5217220;22;20501;-96
2021/04/28 07:04:29;;;;;;;20.43;10.70;;;;;;;;;;5180270;22;20482;-96
2021/04/28 07:17:16;;;;;;;10.93;8.73;;;;;;;;;;5315372;23;20478;-96
2021/04/28 07:19:42;;;;;;;9.20;8.40;;;;;;;;;;5074461;28;20438;-94
2021/04/28 07:22:08;;;;;;;9.70;7.80;;;;;;;;;;5289642;22;20506;-96
2021/04/28 07:24:34;;;;;;;8.00;7.40;;;;;;;;;;5042103;28;20440;-95
2021/04/28 07:27:00;;;;;;;7.73;6.70;;;;;;;;;;5053993;28;20463;-96
2021/04/28 07:40:44;;;;;;;8.70;7.87;;;;;;;;;;5152662;22;20524;-95
2021/04/28 07:43:10;;;;;;;9.47;8.57;;;;;;;;;;5054567;28;20447;-96
2021/04/28 07:45:36;;;;;;;9.63;8.77;;;;;;;;;;5050558;28;20985;-95
2021/04/28 07:48:15;;;;;;;10.47;8.73;;;;;;;;;;5052476;23;20494;-96
2021/04/28 07:56:10;;;;;;;9.03;8.00;;;;;;;;;;5122381;22;20476;-91
2021/04/28 07:58:36;;;;;;;8.63;7.83;;;;;;;;;;5080949;28;20461;-96
2021/04/28 08:04:07;;;;;;;8.40;6.80;;;;;;;;;;5049172;23;20495;-96
2021/04/28 08:14:27;;;;;;;8.20;7.40;;;;;;;;;;574844;22;20791;-95
2021/04/28 08:30:46;;;;;;;10.67;7.37;;;;;;;;;;5753820;22;20465;-93
2021/04/28 08:35:47;;;;;;;8.67;7.53;;;;;;;;;;5357755;22;20468;-95
2021/04/28 08:43:21;;;;;;;10.00;7.50;;;;;;;;;;4682580;22;20468;-96
2021/04/28 08:48:19;;;;;;;10.43;7.57;;;;;;;;;;5072366;23;20490;-96
2021/04/28 08:50:46;;;;;;;11.67;7.80;;;;;;;;;;5077124;28;20453;-96
2021/04/28 08:53:13;;;;;;;8.17;7.37;;;;;;;;;;5074064;28;20445;-96
2021/04/28 08:58:29;;;;;;;10.50;7.10;;;;;;;;;;5157266;22;20495;-95
2021/04/28 09:03:42;;;;;;;7.87;7.07;;;;;;;;;;5174032;22;20485;-95
2021/04/28 09:06:23;;;;;;;6.33;5.83;;;;;;;;;;5089180;28;20464;-96
2021/04/28 09:08:49;;;;;;;6.70;6.10;;;;;;;;;;5075982;28;20440;-94
2021/04/28 09:11:30;;;;;;;7.27;6.57;;;;;;;;;;5074627;28;20444;-96
2021/04/28 09:14:06;;;;;;;6.20;5.70;;;;;;;;;;5091728;28;20452;-94
2021/04/28 09:16:34;;;;;;;9.43;5.50;;;;;;;;;;5094771;28;20460;-96
2021/04/28 09:19:19;;;;;;;5.50;5.00;;;;;;;;;;5092808;28;20472;-96
2021/04/28 09:21:50;;;;;;;5.87;5.37;;;;;;;;;;5097310;28;20436;-96
2021/04/28 09:24:17;;;;;;;5.23;4.83;;;;;;;;;;5091609;28;20507;-96
2021/04/28 09:26:44;;;;;;;5.40;4.90;;;;;;;;;;5107412;22;20459;-94
2021/04/28 09:29:16;;;;;;;5.77;5.10;;;;;;;;;;5087303;28;20449;-96
2021/04/28 09:31:53;;;;;;;6.00;5.33;;;;;;;;;;5108588;28;20482;-95
2021/04/28 09:34:25;;;;;;;6.57;5.30;;;;;;;;;;5095401;28;20445;-92
2021/04/28 09:36:59;;;;;;;5.47;4.90;;;;;;;;;;5101486;28;20480;-91
2021/04/28 09:39:25;;;;;;;6.73;5.33;;;;;;;;;;5088161;28;20448;-92
2021/04/28 09:41:55;;;;;;;5.27;4.87;;;;;;;;;;5103651;28;20887;-95
2021/04/28 09:44:22;;;;;;;5.67;5.17;;;;;;;;;;5106340;22;20492;-96
2021/04/28 09:46:59;;;;;;;6.13;4.90;;;;;;;;;;5068771;28;20453;-96
2021/04/28 09:49:26;;;;;;;8.27;5.90;;;;;;;;;;5065359;28;20823;-95
2021/04/28 09:51:54;;;;;;;5.60;5.10;;;;;;;;;;5069359;28;20486;-94
2021/04/28 09:54:20;;;;;;;5.47;4.97;;;;;;;;;;5067788;28;20452;-94
2021/04/28 09:56:46;;;;;;;5.57;5.00;;;;;;;;;;5069079;28;20496;-94
2021/04/28 09:59:14;;;;;;;5.67;5.10;;;;;;;;;;5065457;28;20461;-95
2021/04/28 10:01:41;;;;;;;6.63;5.40;;;;;;;;;;5066439;28;20457;-94
2021/04/28 10:04:07;;;;;;;5.90;5.40;;;;;;;;;;5067046;28;20488;-92
2021/04/28 10:06:41;;;;;;;5.53;5.03;;;;;;;;;;5064474;28;20452;-96
2021/04/28 10:09:08;;;;;;;5.80;5.30;;;;;;;;;;5068228;28;20533;-96
2021/04/28 10:11:34;;;;;;;6.57;5.60;;;;;;;;;;5066029;28;20488;-95
2021/04/28 10:14:00;;;;;;;6.53;5.00;;;;;;;;;;5066150;28;20454;-92
2021/04/28 10:19:07;;;;;;;5.20;4.70;;;;;;;;;;5070815;28;20486;-95
2021/04/28 10:21:33;;;;;;;5.40;4.90;;;;;;;;;;5066994;28;20508;-95
2021/04/28 10:24:01;;;;;;;5.60;5.10;;;;;;;;;;5068911;28;20458;-94
2021/04/28 10:26:34;;;;;;;6.57;5.43;;;;;;;;;;5069430;28;20498;-96
2021/04/28 10:29:02;;;;;;;7.17;5.47;;;;;;;;;;5069360;28;20449;-94
2021/04/28 10:31:30;;;;;;;5.07;4.67;;;;;;;;;;5062696;28;21062;-93
2021/04/28 10:33:58;;;;;;;5.73;5.13;;;;;;;;;;5070378;28;20462;-96
2021/04/28 10:36:24;;;;;;;5.77;5.20;;;;;;;;;;5069567;28;20485;-94
2021/04/28 10:38:51;;;;;;;5.87;5.27;;;;;;;;;;5073787;28;20451;-96
2021/04/28 10:41:40;;;;;;;5.93;5.33;;;;;;;;;;5066656;28;20465;-95
2021/04/28 10:44:27;;;;;;;5.03;4.60;;;;;;;;;;5082181;23;20495;-95
2021/04/28 10:47:21;;;;;;;6.10;5.23;;;;;;;;;;5090295;28;20441;-94
2021/04/28 10:50:13;;;;;;;5.87;5.37;;;;;;;;;;5084238;28;20452;-96
2021/04/28 10:52:43;;;;;;;4.97;4.47;;;;;;;;;;5087362;28;20481;-94
2021/04/28 10:55:27;;;;;;;6.60;4.90;;;;;;;;;;5088827;28;20446;-96
2021/04/28 10:57:57;;;;;;;7.80;4.90;;;;;;;;;;5089163;28;20538;-95
2021/04/28 11:00:27;;;;;;;6.10;5.03;;;;;;;;;;5089706;28;20460;-96
2021/04/28 11:03:00;;;;;;;7.47;4.90;;;;;;;;;;5113844;22;20498;-95
2021/04/28 11:05:32;;;;;;;6.67;5.17;;;;;;;;;;5111147;28;21131;-96
2021/04/28 11:07:59;;;;;;;8.40;5.20;;;;;;;;;;5133479;28;20453;-95
2021/04/28 11:10:29;;;;;;;9.03;4.70;;;;;;;;;;5128539;28;20458;-92
2021/04/28 11:13:09;;;;;;;6.23;4.67;;;;;;;;;;5130562;28;20931;-96
2021/04/28 11:15:46;;;;;;;5.00;4.50;;;;;;;;;;5124343;28;20451;-96
2021/04/28 11:18:36;;;;;;;9.13;5.47;;;;;;;;;;5130654;28;20811;-96
2021/04/28 11:21:11;;;;;;;6.77;4.33;;;;;;;;;;5130105;28;20435;-95
2021/04/28 11:23:38;;;;;;;6.80;4.90;;;;;;;;;;5141149;23;20484;-95
2021/04/28 11:26:27;;;;;;;5.17;4.60;;;;;;;;;;5089282;28;20449;-96
2021/04/28 11:28:56;;;;;;;5.60;5.10;;;;;;;;;;5089654;28;20450;-96
2021/04/28 11:31:23;;;;;;;6.43;5.20;;;;;;;;;;5088732;28;20441;-96
2021/04/28 11:33:49;;;;;;;8.33;5.27;;;;;;;;;;5088315;28;20445;-96
2021/04/28 11:36:17;;;;;;;5.33;4.90;;;;;;;;;;5090555;28;20493;-95
2021/04/28 11:38:53;;;;;;;9.03;5.80;;;;;;;;;;5087211;28;20460;-96
2021/04/28 11:41:27;;;;;;;9.23;5.43;;;;;;;;;;5091044;28;20498;-95
2021/04/28 11:43:54;;;;;;;8.27;5.27;;;;;;;;;;5089485;28;20445;-95
2021/04/28 11:46:36;;;;;;;6.13;5.13;;;;;;;;;;5089909;28;20456;-96
2021/04/28 11:49:05;;;;;;;7.40;4.80;;;;;;;;;;5083622;28;20449;-95
2021/04/28 11:51:35;;;;;;;9.13;6.13;;;;;;;;;;5088420;28;20460;-95
2021/04/28 11:54:06;;;;;;;5.67;5.10;;;;;;;;;;5088952;28;20521;-95
2021/04/28 11:56:35;;;;;;;11.20;5.27;;;;;;;;;;5087317;28;20493;-94
2021/04/28 11:59:01;;;;;;;7.63;5.10;;;;;;;;;;5084159;28;20453;-96
2021/04/28 12:01:30;;;;;;;7.80;5.90;;;;;;;;;;5086550;28;20445;-95
2021/04/28 12:03:58;;;;;;;10.10;5.47;;;;;;;;;;5067733;28;20457;-94
2021/04/28 12:06:25;;;;;;;10.10;6.10;;;;;;;;;;5086874;28;20452;-95
2021/04/28 12:09:00;;;;;;;7.30;5.47;;;;;;;;;;5088879;28;20437;-96
2021/04/28 12:11:26;;;;;;;12.23;5.90;;;;;;;;;;5085322;28;20460;-95
2021/04/28 12:13:55;;;;;;;6.80;4.70;;;;;;;;;;5089292;28;20452;-96
2021/04/28 12:16:21;;;;;;;7.73;5.00;;;;;;;;;;5085544;28;20481;-95
2021/04/28 12:18:50;;;;;;;7.73;5.13;;;;;;;;;;5077224;23;20449;-96
2021/04/28 12:21:19;;;;;;;7.87;4.90;;;;;;;;;;5011308;28;20465;-95
2021/04/28 12:24:02;;;;;;;7.20;5.10;;;;;;;;;;5011080;28;20458;-95
2021/04/28 12:26:29;;;;;;;9.30;5.40;;;;;;;;;;5026050;28;20476;-96
2021/04/28 12:28:55;;;;;;;7.53;5.53;;;;;;;;;;5026218;28;20440;-96
2021/04/28 12:31:36;;;;;;;8.00;5.33;;;;;;;;;;5011256;28;20437;-94
2021/04/28 12:34:03;;;;;;;7.27;4.90;;;;;;;;;;5009040;28;20459;-94
2021/04/28 12:36:31;;;;;;;8.27;4.87;;;;;;;;;;5017138;28;20534;-96
2021/04/28 12:39:06;;;;;;;6.07;4.60;;;;;;;;;;5013021;28;20448;-95
2021/04/28 12:41:38;;;;;;;11.77;5.53;;;;;;;;;;5004443;28;20465;-95
2021/04/28 12:44:07;;;;;;;8.50;4.83;;;;;;;;;;5017091;28;20462;-96
2021/04/28 12:46:33;;;;;;;9.17;5.20;;;;;;;;;;5012616;28;20464;-96
2021/04/28 12:49:05;;;;;;;7.53;4.90;;;;;;;;;;5022145;28;20470;-96
2021/04/28 12:54:16;;;;;;;9.13;5.73;;;;;;;;;;5006453;28;20461;-96
2021/04/28 12:56:43;;;;;;;8.57;5.17;;;;;;;;;;5000068;28;20491;-95
2021/04/28 12:59:18;;;;;;;10.20;5.80;;;;;;;;;;5019945;28;20447;-96
2021/04/28 13:04:43;;;;;;;7.90;5.30;;;;;;;;;;5024172;28;20492;-95
2021/04/28 13:10:18;;;;;;;8.33;5.40;;;;;;;;;;5020509;28;20443;-96
2021/04/28 13:12:45;;;;;;;9.40;5.20;;;;;;;;;;5022125;28;20458;-96
2021/04/28 13:15:15;;;;;;;7.83;5.40;;;;;;;;;;5029081;28;20523;-96
2021/04/28 13:18:05;;;;;;;10.47;5.50;;;;;;;;;;5031276;23;20459;-96
2021/04/28 13:20:38;;;;;;;17.63;6.20;;;;;;;;;;5039891;28;20485;-95
2021/04/28 13:23:15;;;;;;;8.50;5.70;;;;;;;;;;5042521;28;20989;-95
2021/04/28 13:26:03;;;;;;;11.53;5.90;;;;;;;;;;5047047;28;20447;-95
2021/04/28 13:28:38;;;;;;;10.33;6.10;;;;;;;;;;5044451;28;20454;-95
2021/04/28 13:31:21;;;;;;;9.17;6.37;;;;;;;;;;5047478;28;20898;-96
2021/04/28 13:33:48;;;;;;;10.50;6.80;;;;;;;;;;5029036;28;20470;-95
2021/04/28 13:36:32;;;;;;;9.00;5.87;;;;;;;;;;5048730;28;20483;-94
2021/04/28 13:39:02;;;;;;;15.77;6.00;;;;;;;;;;5043416;28;20453;-94
2021/04/28 13:44:01;;;;;;;7.70;6.20;;;;;;;;;;5130493;22;20516;-96
2021/04/28 13:46:29;;;;;;;9.93;5.60;;;;;;;;;;5087556;28;20433;-95
2021/04/28 13:48:56;;;;;;;6.33;5.70;;;;;;;;;;5070474;28;20457;-96
2021/04/28 13:51:41;;;;;;;7.50;5.27;;;;;;;;;;5089508;28;21093;-95
2021/04/28 13:54:28;;;;;;;11.07;6.10;;;;;;;;;;5083434;28;20456;-96
2021/04/28 13:56:57;;;;;;;8.93;6.00;;;;;;;;;;5104005;22;20483;-94
2021/04/28 13:59:23;;;;;;;9.80;5.97;;;;;;;;;;5108250;28;20457;-96
2021/04/28 14:01:50;;;;;;;13.13;5.63;;;;;;;;;;5110728;28;20466;-94
2021/04/28 14:04:17;;;;;;;7.30;5.87;;;;;;;;;;5116637;28;20456;-96
2021/04/28 14:07:03;;;;;;;8.07;5.10;;;;;;;;;;5096310;28;20467;-94
2021/04/28 14:09:32;;;;;;;9.30;6.00;;;;;;;;;;5112583;28;20458;-94
2021/04/28 14:14:41;;;;;;;6.73;5.93;;;;;;;;;;5103372;28;20467;-95
2021/04/28 14:17:08;;;;;;;8.27;5.63;;;;;;;;;;5116295;23;20500;-95
2021/04/28 14:19:35;;;;;;;8.37;5.23;;;;;;;;;;5093157;28;20428;-94
2021/04/28 14:22:02;;;;;;;11.00;5.70;;;;;;;;;;5111612;28;20457;-95
2021/04/28 14:24:31;;;;;;;8.10;5.47;;;;;;;;;;5110868;28;20667;-96
2021/04/28 14:27:01;;;;;;;9.00;5.53;;;;;;;;;;5111846;28;20486;-92
2021/04/28 14:29:30;;;;;;;9.80;6.00;;;;;;;;;;5082246;28;20459;-96
2021/04/28 14:32:01;;;;;;;7.60;5.70;;;;;;;;;;5109785;28;20517;-96
2021/04/28 14:34:34;;;;;;;9.17;5.97;;;;;;;;;;5111611;28;20421;-95
2021/04/28 14:37:07;;;;;;;12.40;5.50;;;;;;;;;;5104797;28;20518;-96
2021/04/28 14:39:33;;;;;;;13.47;6.83;;;;;;;;;;5105916;28;20456;-95
2021/04/28 14:41:59;;;;;;;11.57;6.93;;;;;;;;;;5104066;28;20502;-94
2021/04/28 14:44:34;;;;;;;8.00;5.33;;;;;;;;;;5106355;28;20495;-94
2021/04/28 14:47:01;;;;;;;10.03;5.70;;;;;;;;;;5108643;28;20447;-93
2021/04/28 14:49:28;;;;;;;9.73;5.53;;;;;;;;;;5110892;28;21273;-94
2021/04/28 14:52:01;;;;;;;10.87;6.00;;;;;;;;;;5106864;28;20495;-94
2021/04/28 14:54:31;;;;;;;13.70;5.90;;;;;;;;;;5108187;28;20440;-96
2021/04/28 14:57:02;;;;;;;9.60;6.00;;;;;;;;;;5102419;28;20513;-96
2021/04/28 14:59:28;;;;;;;9.30;5.80;;;;;;;;;;5110808;28;20444;-95
2021/04/28 15:01:54;;;;;;;11.60;5.87;;;;;;;;;;5105581;28;20459;-94
2021/04/28 15:04:21;;;;;;;7.97;5.77;;;;;;;;;;5108621;28;20459;-96
2021/04/28 15:06:47;;;;;;;7.33;5.97;;;;;;;;;;5102919;28;20513;-95
2021/04/28 15:09:18;;;;;;;7.30;5.70;;;;;;;;;;5107409;28;20448;-95
2021/04/28 15:11:44;;;;;;;7.90;5.80;;;;;;;;;;5088654;28;20460;-93
2021/04/28 15:14:10;;;;;;;10.90;5.87;;;;;;;;;;5107605;28;20508;-90
2021/04/28 15:16:36;;;;;;;8.90;6.53;;;;;;;;;;5116778;28;20536;-96
2021/04/28 15:19:06;;;;;;;9.67;6.20;;;;;;;;;;5097511;28;20472;-95
2021/04/28 15:24:13;;;;;;;13.07;6.27;;;;;;;;;;5076898;28;20482;-92
2021/04/28 15:26:41;;;;;;;11.13;6.30;;;;;;;;;;5086735;28;20453;-96
2021/04/28 15:29:07;;;;;;;12.23;7.03;;;;;;;;;;5064010;28;20441;-94
2021/04/28 15:31:34;;;;;;;9.53;6.83;;;;;;;;;;5087232;28;20729;-96
2021/04/28 15:34:02;;;;;;;10.50;7.87;;;;;;;;;;5068641;28;20846;-95
2021/04/28 15:36:30;;;;;;;8.83;7.77;;;;;;;;;;5088786;28;20710;-96
2021/04/28 15:39:00;;;;;;;8.43;7.43;;;;;;;;;;5084485;28;20486;-94
2021/04/28 15:41:26;;;;;;;6.87;6.13;;;;;;;;;;5085024;28;20459;-93
2021/04/28 15:43:52;;;;;;;9.50;6.67;;;;;;;;;;5084128;28;20463;-96
2021/04/28 15:46:19;;;;;;;10.30;6.80;;;;;;;;;;5086103;28;20554;-92
2021/04/28 15:48:45;;;;;;;8.97;6.90;;;;;;;;;;5088242;28;20456;-92
2021/04/28 15:51:10;;;;;;;8.20;6.97;;;;;;;;;;5084703;28;20457;-95
2021/04/28 15:53:36;;;;;;;9.37;6.80;;;;;;;;;;5080861;28;20483;-94
2021/04/28 15:56:04;;;;;;;10.80;8.23;;;;;;;;;;5084031;28;20490;-92
2021/04/28 15:58:30;;;;;;;8.00;7.30;;;;;;;;;;5084696;28;20492;-96
2021/04/28 16:00:56;;;;;;;10.30;7.40;;;;;;;;;;5083313;28;20464;-95
2021/04/28 16:03:22;;;;;;;7.77;6.97;;;;;;;;;;5080586;28;20537;-92
2021/04/28 16:05:48;;;;;;;9.90;7.50;;;;;;;;;;5083868;28;20456;-95
2021/04/28 16:08:14;;;;;;;9.90;7.33;;;;;;;;;;5085256;28;20560;-96
2021/04/28 16:10:41;;;;;;;11.00;7.37;;;;;;;;;;5081416;28;20460;-95
2021/04/28 16:13:08;;;;;;;9.97;7.17;;;;;;;;;;5087030;28;20448;-96
2021/04/28 16:15:34;;;;;;;8.33;7.50;;;;;;;;;;5122128;23;20531;-94